Latest Weather Observations for Moomba Airport

IDS60801

Issued at 11:01 am CST Thursday 28 May 2015 (issued every 30 minutes, with the page automatically refreshed every 10 minutes)

About weather observations | Map of weather stations | Latest weather observations for SA | Other Formats
Station Details ID: 017123 Name: MOOMBA AIRPORT Lat: -28.10 Lon: 140.20 Height: 37.8 m
Data from the previous 72 hours. | See also: Recent months at Moomba Airport
Date/Time
CST
Temp
°C
App
Temp
°C
Dew
Point
Rel
Hum
%
Delta-T
°C
Wind Press
QNH
hPa
Press
MSL
hPa
Rain
since 9 am
mm
Dir
 
Spd
km/h
Gust
km/h
Spd
kts
Gust
kts
28/11:00am 22.8 21.7 11.8 50 6.2 N 9 11 5 6 1021.0 1021.0 0.0
28/10:30am 22.0 21.1 11.4 51 5.9 NNE 7 9 4 5 1021.4 1021.4 0.0
28/10:00am 21.2 20.3 11.5 54 5.4 NNE 7 11 4 6 1021.6 1021.6 0.0
28/09:30am 20.6 18.5 11.2 55 5.2 NNE 13 15 7 8 1021.6 1021.6 0.0
28/09:00am 19.6 18.0 11.4 59 4.5 NE 11 13 6 7 1021.1 1021.1 0.0
28/08:30am 18.3 17.3 11.1 63 3.9 ENE 7 9 4 5 1020.8 1020.8 0.0
28/08:00am 17.8 17.1 11.4 66 3.5 ENE 6 7 3 4 1020.7 1020.7 0.0
28/07:30am 17.1 17.3 10.7 66 3.4 CALM 0 6 0 3 1020.4 1020.4 0.0
28/07:00am 17.0 16.0 11.1 68 3.2 SE 7 9 4 5 1020.0 1020.0 0.0
28/06:30am 16.2 15.6 10.5 69 3.0 E 4 7 2 4 1019.9 1019.9 0.0
28/06:00am 15.7 13.9 9.6 67 3.2 E 9 11 5 6 1019.3 1019.3 0.0
28/05:30am 16.2 14.5 9.8 66 3.3 ENE 9 11 5 6 1018.9 1018.9 0.0
28/05:00am 16.9 15.4 10.7 67 3.3 ESE 9 11 5 6 1018.7 1018.7 0.0
28/04:30am 16.7 15.5 10.3 66 3.4 ESE 7 9 4 5 1018.8 1018.8 0.0
28/04:00am 16.7 15.1 10.1 65 3.5 ESE 9 11 5 6 1018.8 1018.8 0.0
28/03:30am 16.6 14.6 10.0 65 3.5 E 11 13 6 7 1018.9 1018.9 0.0
28/03:00am 16.5 14.4 9.7 64 3.5 ENE 11 15 6 8 1019.2 1019.2 0.0
28/02:30am 16.2 14.1 9.8 66 3.3 ENE 11 15 6 8 1019.2 1019.2 0.0
28/02:00am 16.2 14.4 9.4 64 3.5 E 9 9 5 5 1019.6 1019.6 0.0
28/01:30am 17.3 16.1 10.4 64 3.7 E 7 7 4 4 1019.9 1019.9 0.0
28/01:00am 17.9 16.9 10.3 61 4.1 ESE 6 9 3 5 1019.9 1019.9 0.0
28/12:30am 18.6 17.1 10.7 60 4.3 SE 9 11 5 6 1019.8 1019.8 0.0
28/12:00am 18.8 16.6 10.9 60 4.3 SE 13 15 7 8 1019.8 1019.8 0.0
 
Date/Time
CST
Temp
°C
App
Temp
°C
Dew
Point
Rel
Hum
%
Delta-T
°C
Wind Press
QNH
hPa
Press
MSL
hPa
Rain
since 9 am
mm
Dir
 
Spd
km/h
Gust
km/h
Spd
kts
Gust
kts
27/11:30pm 18.9 17.1 10.7 59 4.4 SE 11 15 6 8 1020.0 1020.0 0.0
27/11:00pm 18.9 16.9 10.2 57 4.7 S 11 13 6 7 1020.4 1020.4 0.0
27/10:30pm 19.4 17.4 10.1 55 5.0 SSE 11 13 6 7 1020.1 1020.1 0.0
27/10:00pm 19.8 18.1 9.7 52 5.4 S 9 13 5 7 1020.3 1020.3 0.0
27/09:30pm 20.6 19.0 10.1 51 5.7 SE 9 13 5 7 1020.3 1020.3 0.0
27/09:00pm 21.3 18.9 10.2 49 6.0 SE 13 17 7 9 1020.2 1020.2 0.0
27/08:30pm 22.1 19.8 10.3 47 6.4 SE 13 19 7 10 1020.2 1020.2 0.0
27/08:00pm 22.3 20.2 9.8 45 6.8 S 11 17 6 9 1020.1 1020.1 0.0
27/07:30pm 22.7 20.5 9.5 43 7.1 S 11 15 6 8 1019.6 1019.6 0.0
27/07:00pm 23.4 20.9 9.8 42 7.4 SSE 13 19 7 10 1019.4 1019.4 0.0
27/06:30pm 24.0 21.1 9.6 40 7.8 S 15 20 8 11 1019.2 1019.2 0.0
27/06:00pm 24.8 23.5 9.9 39 8.2 SSW 7 9 4 5 1019.1 1019.1 0.0
27/05:30pm 25.6 23.9 9.8 37 8.7 SW 9 13 5 7 1018.9 1018.9 0.0
27/05:00pm 26.2 23.8 10.0 36 9.0 WSW 13 19 7 10 1019.0 1019.0 0.0
27/04:30pm 26.5 24.1 10.2 36 9.1 WSW 13 19 7 10 1018.7 1018.7 0.0
27/04:00pm 26.8 23.3 10.1 35 9.3 W 19 26 10 14 1018.5 1018.5 0.0
27/03:30pm 27.5 25.0 9.8 33 9.8 W 13 24 7 13 1018.5 1018.5 0.0
27/03:00pm 27.7 25.3 10.0 33 9.9 WNW 13 19 7 10 1018.6 1018.6 0.0
27/02:30pm 27.2 24.8 10.0 34 9.6 W 13 20 7 11 1018.9 1018.9 0.0
27/02:00pm 27.8 25.0 10.1 33 9.9 WNW 15 22 8 12 1019.0 1019.0 0.0
27/01:30pm 27.2 24.4 10.0 34 9.6 WNW 15 22 8 12 1019.4 1019.4 0.0
27/01:00pm 27.1 24.0 10.3 35 9.4 WNW 17 22 9 12 1019.8 1019.8 0.0
27/12:30pm 26.9 23.8 10.2 35 9.3 NW 17 24 9 13 1020.3 1020.3 0.0
27/12:00pm 26.6 22.9 10.3 36 9.1 NW 20 26 11 14 1020.9 1020.9 0.0
27/11:30am 26.2 22.9 10.8 38 8.6 NW 19 24 10 13 1021.4 1021.4 0.0
27/11:00am 25.7 21.8 10.7 39 8.4 NNW 22 28 12 15 1022.0 1022.0 0.0
27/10:30am 25.5 22.0 10.9 40 8.2 N 20 26 11 14 1022.1 1022.1 0.0
27/10:00am 24.6 21.1 10.8 42 7.7 N 20 24 11 13 1022.1 1022.1 0.0
27/09:30am 22.8 19.2 10.6 46 6.7 N 20 22 11 12 1021.9 1021.9 0.0
27/09:00am 20.2 17.0 10.0 52 5.5 N 17 20 9 11 1021.9 1021.9 0.0
27/08:30am 18.4 14.7 9.5 56 4.7 NNE 19 24 10 13 1021.6 1021.6 0.0
27/08:00am 16.8 13.7 8.8 59 4.1 N 15 19 8 10 1021.7 1021.7 0.0
27/07:30am 16.0 13.2 8.5 61 3.8 NNE 13 13 7 7 1021.4 1021.4 0.0
27/07:00am 15.7 12.8 8.2 61 3.8 NNE 13 15 7 8 1020.9 1020.9 0.0
27/06:30am 15.6 12.6 7.9 60 3.9 NNE 13 17 7 9 1020.7 1020.7 0.0
27/06:00am 15.9 12.6 7.9 59 4.0 NNE 15 19 8 10 1020.2 1020.2 0.0
27/05:30am 16.2 12.9 7.9 58 4.2 NNE 15 19 8 10 1020.2 1020.2 0.0
27/05:00am 16.5 13.6 8.0 57 4.3 NE 13 17 7 9 1020.0 1020.0 0.0
27/04:30am 17.3 14.0 8.2 55 4.6 NE 15 19 8 10 1020.2 1020.2 0.0
27/04:00am 17.6 14.8 8.5 55 4.7 NE 13 15 7 8 1020.3 1020.3 0.0
27/03:30am 17.6 15.5 8.2 54 4.8 ENE 9 11 5 6 1020.4 1020.4 0.0
27/03:00am 18.1 16.3 8.1 52 5.1 ENE 7 9 4 5 1020.5 1020.5 0.0
27/02:30am 19.1 16.0 8.7 51 5.4 NE 15 19 8 10 1020.8 1020.8 0.0
27/02:00am 18.8 16.0 8.7 52 5.3 ENE 13 17 7 9 1020.8 1020.8 0.0
27/01:30am 18.3 16.2 8.3 52 5.1 ENE 9 11 5 6 1021.1 1021.1 0.0
27/01:00am 18.2 15.3 8.2 52 5.1 ENE 13 15 7 8 1021.3 1021.3 0.0
27/12:30am 17.9 14.9 7.9 52 5.1 E 13 15 7 8 1021.3 1021.3 0.0
27/12:00am 18.1 15.6 8.1 52 5.1 E 11 15 6 8 1021.4 1021.4 0.0
 
Date/Time
CST
Temp
°C
App
Temp
°C
Dew
Point
Rel
Hum
%
Delta-T
°C
Wind Press
QNH
hPa
Press
MSL
hPa
Rain
since 9 am
mm
Dir
 
Spd
km/h
Gust
km/h
Spd
kts
Gust
kts
26/11:30pm 18.1 15.2 8.1 52 5.1 E 13 15 7 8 1021.5 1021.5 0.0
26/11:00pm 18.7 15.8 8.1 50 5.5 E 13 13 7 7 1021.9 1021.9 0.0
26/10:30pm 19.4 16.9 8.1 48 5.8 E 11 13 6 7 1022.2 1022.2 0.0
26/10:00pm 20.0 17.2 8.4 47 6.0 E 13 15 7 8 1022.2 1022.2 0.0
26/09:30pm 20.3 17.4 8.3 46 6.2 ESE 13 15 7 8 1022.1 1022.1 0.0
26/09:00pm 20.2 17.6 7.9 45 6.3 ESE 11 13 6 7 1022.3 1022.3 0.0
26/08:30pm 20.7 18.2 8.4 45 6.4 ESE 11 13 6 7 1022.3 1022.3 0.0
26/08:00pm 21.2 17.8 7.8 42 7.0 SE 15 19 8 10 1022.2 1022.2 0.0
26/07:30pm 22.3 19.0 8.1 40 7.4 SE 15 19 8 10 1021.9 1021.9 0.0
26/07:00pm 22.1 19.5 7.9 40 7.4 S 11 17 6 9 1021.7 1021.7 0.0
26/06:30pm 22.7 20.2 8.0 39 7.7 SE 11 13 6 7 1021.6 1021.6 0.0
26/06:00pm 23.3 21.2 8.2 38 8.0 SE 9 13 5 7 1021.5 1021.5 0.0
26/05:30pm 23.9 20.6 7.9 36 8.4 SE 15 17 8 9 1021.1 1021.1 0.0
26/05:00pm 24.5 20.8 8.0 35 8.8 SE 17 20 9 11 1020.8 1020.8 0.0
26/04:30pm 24.8 21.6 8.3 35 8.8 SE 15 19 8 10 1021.1 1021.1 0.0
26/04:00pm 25.1 22.3 8.6 35 8.9 SE 13 17 7 9 1021.0 1021.0 0.0
26/03:30pm 25.4 22.2 8.4 34 9.1 SE 15 19 8 10 1021.0 1021.0 0.0
26/03:00pm 25.5 23.5 8.5 34 9.1 SE 9 19 5 10 1021.2 1021.2 0.0
26/02:30pm 25.2 23.1 8.2 34 9.1 SE 9 13 5 7 1021.5 1021.5 0.0
26/02:00pm 25.2 22.7 8.2 34 9.1 SSE 11 15 6 8 1021.7 1021.7 0.0
26/01:30pm 25.1 23.1 8.6 35 8.9 SE 9 13 5 7 1022.0 1022.0 0.0
26/01:00pm 24.5 22.5 8.5 36 8.6 SSE 9 13 5 7 1022.4 1022.4 0.0
26/12:30pm 23.8 21.3 8.2 37 8.3 SSE 11 17 6 9 1022.9 1022.9 0.0
26/12:00pm 23.5 21.9 8.8 39 7.8 SE 7 13 4 7 1023.4 1023.4 0.0
26/11:30am 23.3 21.4 9.0 40 7.7 ESE 9 15 5 8 1023.9 1023.9 0.0
26/11:00am 22.3 20.8 9.1 43 7.1 S 7 9 4 5 1024.8 1024.7 0.0
26/10:30am 21.7 21.2 9.3 45 6.6 S 2 7 1 4 1025.2 1025.1 0.0
26/10:00am 21.2 19.9 9.1 46 6.4 SSW 6 11 3 6 1025.4 1025.3 0.0
26/09:30am 20.6 19.3 9.2 48 6.0 SSW 6 9 3 5 1025.6 1025.5 0.0
26/09:00am 21.0 20.6 9.6 48 6.1 ENE 2 6 1 3 1025.4 1025.3 0.0
26/08:30am 18.7 17.5 9.5 55 4.8 ENE 6 7 3 4 1025.0 1024.9 0.0
26/08:00am 17.8 15.6 9.2 57 4.5 NE 11 15 6 8 1024.6 1024.5 0.0
26/07:30am 17.3 15.3 8.7 57 4.4 ENE 9 11 5 6 1024.5 1024.4 0.0
26/07:00am 16.5 14.8 8.2 58 4.2 E 7 9 4 5 1024.3 1024.2 0.0
26/06:30am 16.3 14.5 8.0 58 4.2 E 7 7 4 4 1024.4 1024.3 0.0
26/06:00am 16.7 13.8 8.1 57 4.3 E 13 17 7 9 1023.4 1023.4 0.0
26/05:30am 16.4 14.2 7.9 57 4.3 E 9 11 5 6 1023.3 1023.3 0.0
26/05:00am 16.7 14.5 7.9 56 4.4 E 9 11 5 6 1023.4 1023.4 0.0
26/04:30am 17.2 15.1 8.1 55 4.6 E 9 11 5 6 1023.6 1023.6 0.0
26/04:00am 17.5 15.4 8.1 54 4.8 ESE 9 11 5 6 1023.5 1023.5 0.0
26/03:30am 17.5 15.7 7.8 53 4.9 E 7 11 4 6 1023.8 1023.8 0.0
26/03:00am 17.8 15.3 8.1 53 4.9 ESE 11 13 6 7 1023.5 1023.5 0.0
26/02:30am 17.7 15.8 7.7 52 5.0 ESE 7 9 4 5 1024.0 1024.0 0.0
26/02:00am 17.7 15.7 7.2 50 5.3 ENE 7 9 4 5 1024.0 1024.0 0.0
26/01:30am 18.0 15.6 7.1 49 5.4 E 9 9 5 5 1024.1 1024.1 0.0
26/01:00am 18.1 15.3 6.9 48 5.6 E 11 15 6 8 1024.0 1024.0 0.0
26/12:30am 18.2 15.0 7.0 48 5.6 ESE 13 15 7 8 1024.1 1024.1 0.0
26/12:00am 18.4 15.1 6.6 46 5.9 ESE 13 17 7 9 1024.1 1024.1 0.0
 
Date/Time
CST
Temp
°C
App
Temp
°C
Dew
Point
Rel
Hum
%
Delta-T
°C
Wind Press
QNH
hPa
Press
MSL
hPa
Rain
since 9 am
mm
Dir
 
Spd
km/h
Gust
km/h
Spd
kts
Gust
kts
25/11:30pm 18.7 16.1 6.2 44 6.2 SE 9 13 5 7 1024.6 1024.5 0.0
25/11:00pm 18.9 16.0 6.4 44 6.2 SE 11 15 6 8 1025.0 1024.9 0.0
25/10:30pm 19.0 16.0 6.1 43 6.4 SSE 11 15 6 8 1025.2 1025.1 0.0
25/10:00pm 19.2 16.2 6.0 42 6.5 S 11 15 6 8 1025.8 1025.7 0.0
25/09:30pm 19.6 16.3 6.3 42 6.6 S 13 17 7 9 1025.7 1025.6 0.0
25/09:00pm 19.9 16.6 6.3 41 6.8 S 13 17 7 9 1025.5 1025.4 0.0
25/08:30pm 20.1 16.7 6.1 40 7.0 S 13 19 7 10 1025.2 1025.1 0.0
25/08:00pm 21.0 17.7 6.5 39 7.3 SSE 13 17 7 9 1025.0 1024.9 0.0
25/07:30pm 21.2 17.5 6.3 38 7.5 SE 15 17 8 9 1024.7 1024.6 0.0
25/07:00pm 21.4 18.0 6.1 37 7.7 SE 13 17 7 9 1024.6 1024.5 0.0
25/06:30pm 21.7 18.3 6.0 36 7.9 SE 13 15 7 8 1024.5 1024.4 0.0
25/06:00pm 21.8 19.2 6.1 36 7.9 SE 9 13 5 7 1024.3 1024.2 0.0
25/05:30pm 21.8 19.1 5.7 35 8.0 ESE 9 11 5 6 1023.7 1023.7 0.0
25/05:00pm 22.6 20.4 6.4 35 8.3 SE 7 11 4 6 1023.6 1023.6 0.0
25/04:30pm 23.0 20.1 6.3 34 8.5 ESE 11 15 6 8 1023.1 1023.1 0.0
25/04:00pm 23.2 19.4 6.0 33 8.7 ESE 15 19 8 10 1023.0 1023.0 0.0
25/03:30pm 23.4 20.1 6.2 33 8.8 SE 13 17 7 9 1023.2 1023.2 0.0
25/03:00pm 23.1 20.2 6.4 34 8.5 SE 11 15 6 8 1023.2 1023.2 0.0
25/02:30pm 22.9 20.4 6.6 35 8.3 SSE 9 13 5 7 1023.6 1023.6 0.0
25/02:00pm 22.6 20.1 6.4 35 8.3 SE 9 11 5 6 1023.8 1023.8 0.0
25/01:30pm 22.7 20.2 6.5 35 8.3 E 9 13 5 7 1023.9 1023.9 0.0
25/01:00pm 22.6 20.2 6.8 36 8.1 E 9 13 5 7 1024.1 1024.1 0.0
25/12:30pm 22.0 19.1 6.7 37 7.8 E 11 15 6 8 1024.7 1024.6 0.0
25/12:00pm 21.9 18.9 6.2 36 7.9 ENE 11 15 6 8 1025.2 1025.1 0.0
25/11:30am 21.8 18.5 6.5 37 7.7 ENE 13 17 7 9 1025.6 1025.5 0.0

Other Formats:

Comma delimited format used in spreadsheet applications
http://www.bom.gov.au/fwo/IDS60801/IDS60801.95481.axf

JavaScript Object Notation format (JSON) in row-major order
http://www.bom.gov.au/fwo/IDS60801/IDS60801.95481.json